SAS53T EKCH-EKVG
Flight info
| Callsign | SAS53T |
|---|---|
| Flight time | 2h 3m |
| Altitude | 38000 |
| Route | GOLGA DCT AMSEV DCT GUNPA/M077F380 DCT ROBUR |
| Aircraft | A20N/M-SDE2E3FGHIRWXY/LB1 |
Departure
| Time | 2026-04-26 18:24 |
|---|---|
| Airport | Copenhagen Kastrup Airport (EKCH) |
Arrival
| Time | 2026-04-26 20:28 |
|---|---|
| Airport | Vágar Airport (EKVG) |
| Time | Latitude | Longitude | Altitude | Speed | Heading |
|---|---|---|---|---|---|
| 2026-04-26 17:41 | 55.62697 | 12.64580 | 21 ft | 0 kts | 282° |
| 2026-04-26 18:09 | 55.62696 | 12.64592 | 21 ft | 2 kts | 291° |
| 2026-04-26 18:10 | 55.62690 | 12.64616 | 21 ft | 2 kts | 287° |
| 2026-04-26 18:10 | 55.62686 | 12.64642 | 21 ft | 2 kts | 289° |
| 2026-04-26 18:10 | 55.62681 | 12.64668 | 21 ft | 2 kts | 288° |
| 2026-04-26 18:10 | 55.62677 | 12.64692 | 21 ft | 2 kts | 288° |
| 2026-04-26 18:11 | 55.62672 | 12.64714 | 21 ft | 0 kts | 288° |
| 2026-04-26 18:11 | 55.62672 | 12.64705 | 21 ft | 3 kts | 267° |
| 2026-04-26 18:11 | 55.62661 | 12.64674 | 21 ft | 3 kts | 211° |
| 2026-04-26 18:11 | 55.62633 | 12.64663 | 21 ft | 4 kts | 192° |
| 2026-04-26 18:12 | 55.62622 | 12.64659 | 21 ft | 0 kts | 192° |
| 2026-04-26 18:16 | 55.62618 | 12.64658 | 21 ft | 1 kts | 192° |
| 2026-04-26 18:16 | 55.62571 | 12.64651 | 21 ft | 5 kts | 179° |
| 2026-04-26 18:16 | 55.62528 | 12.64653 | 21 ft | 7 kts | 179° |
| 2026-04-26 18:17 | 55.62474 | 12.64663 | 21 ft | 8 kts | 170° |
| 2026-04-26 18:17 | 55.62412 | 12.64673 | 21 ft | 9 kts | 179° |
| 2026-04-26 18:17 | 55.62340 | 12.64685 | 21 ft | 10 kts | 154° |
| 2026-04-26 18:17 | 55.62285 | 12.64782 | 21 ft | 11 kts | 152° |
| 2026-04-26 18:18 | 55.62209 | 12.64771 | 21 ft | 8 kts | 212° |
| 2026-04-26 18:18 | 55.62155 | 12.64709 | 21 ft | 9 kts | 214° |
| 2026-04-26 18:18 | 55.62093 | 12.64637 | 21 ft | 11 kts | 213° |
| 2026-04-26 18:18 | 55.62025 | 12.64560 | 22 ft | 12 kts | 213° |
| 2026-04-26 18:19 | 55.61946 | 12.64500 | 22 ft | 12 kts | 181° |
| 2026-04-26 18:19 | 55.61858 | 12.64519 | 22 ft | 13 kts | 170° |
| 2026-04-26 18:19 | 55.61765 | 12.64552 | 22 ft | 14 kts | 169° |
| 2026-04-26 18:19 | 55.61671 | 12.64557 | 22 ft | 12 kts | 201° |
| 2026-04-26 18:20 | 55.61594 | 12.64473 | 22 ft | 13 kts | 214° |
| 2026-04-26 18:20 | 55.61513 | 12.64377 | 22 ft | 14 kts | 214° |
| 2026-04-26 18:20 | 55.61430 | 12.64283 | 22 ft | 14 kts | 212° |
| 2026-04-26 18:20 | 55.61401 | 12.64251 | 22 ft | 14 kts | 213° |
| 2026-04-26 18:21 | 55.61251 | 12.64080 | 23 ft | 15 kts | 213° |
| 2026-04-26 18:21 | 55.61156 | 12.63970 | 23 ft | 16 kts | 214° |
| 2026-04-26 18:21 | 55.61061 | 12.63860 | 22 ft | 16 kts | 213° |
| 2026-04-26 18:21 | 55.60960 | 12.63745 | 22 ft | 17 kts | 213° |
| 2026-04-26 18:22 | 55.60858 | 12.63625 | 22 ft | 17 kts | 214° |
| 2026-04-26 18:22 | 55.60797 | 12.63584 | 22 ft | 8 kts | 169° |
| 2026-04-26 18:22 | 55.60753 | 12.63654 | 22 ft | 9 kts | 131° |
| 2026-04-26 18:22 | 55.60709 | 12.63744 | 22 ft | 10 kts | 131° |
| 2026-04-26 18:23 | 55.60668 | 12.63828 | 22 ft | 6 kts | 129° |
| 2026-04-26 18:23 | 55.60684 | 12.63885 | 23 ft | 6 kts | 40° |
| 2026-04-26 18:23 | 55.60687 | 12.63889 | 23 ft | 0 kts | 41° |
| 2026-04-26 18:23 | 55.60844 | 12.64129 | 24 ft | 68 kts | 41° |
| 2026-04-26 18:24 | 55.61374 | 12.64951 | 24 ft | 133 kts | 41° |
| 2026-04-26 18:24 | 55.62207 | 12.66221 | 177 ft | 171 kts | 41° |
| 2026-04-26 18:24 | 55.63070 | 12.67555 | 949 ft | 165 kts | 41° |
| 2026-04-26 18:24 | 55.63911 | 12.68897 | 1726 ft | 166 kts | 42° |
| 2026-04-26 18:25 | 55.64743 | 12.70270 | 2463 ft | 165 kts | 42° |
| 2026-04-26 18:25 | 55.65731 | 12.71326 | 2904 ft | 179 kts | 14° |
| 2026-04-26 18:25 | 55.67017 | 12.71218 | 3322 ft | 197 kts | 343° |
| 2026-04-26 18:25 | 55.68373 | 12.70452 | 3768 ft | 213 kts | 350° |
| 2026-04-26 18:26 | 55.69925 | 12.70103 | 4144 ft | 236 kts | 354° |
| 2026-04-26 18:26 | 55.71614 | 12.69842 | 4687 ft | 252 kts | 354° |
| 2026-04-26 18:26 | 55.73390 | 12.69620 | 5482 ft | 259 kts | 354° |
| 2026-04-26 18:26 | 55.75171 | 12.69416 | 6405 ft | 259 kts | 354° |
| 2026-04-26 18:27 | 55.76946 | 12.69223 | 7234 ft | 262 kts | 354° |
| 2026-04-26 18:27 | 55.78756 | 12.69034 | 8043 ft | 265 kts | 354° |
| 2026-04-26 18:27 | 55.80590 | 12.68717 | 8858 ft | 266 kts | 343° |
| 2026-04-26 18:27 | 55.82214 | 12.67264 | 9673 ft | 265 kts | 319° |
| 2026-04-26 18:28 | 55.83351 | 12.64739 | 10451 ft | 269 kts | 297° |
| 2026-04-26 18:28 | 55.84103 | 12.61660 | 11058 ft | 280 kts | 299° |
| 2026-04-26 18:28 | 55.85328 | 12.58901 | 11450 ft | 296 kts | 317° |
| 2026-04-26 18:28 | 55.86900 | 12.56418 | 12066 ft | 304 kts | 319° |
| 2026-04-26 18:29 | 55.88461 | 12.53919 | 12863 ft | 304 kts | 317° |
| 2026-04-26 18:29 | 55.89997 | 12.51341 | 13622 ft | 307 kts | 316° |
| 2026-04-26 18:29 | 55.91524 | 12.48677 | 14367 ft | 309 kts | 316° |
| 2026-04-26 18:29 | 55.93033 | 12.45971 | 15101 ft | 311 kts | 315° |
| 2026-04-26 18:30 | 55.94527 | 12.43244 | 15798 ft | 314 kts | 315° |
| 2026-04-26 18:30 | 55.96055 | 12.40419 | 16508 ft | 317 kts | 314° |
| 2026-04-26 18:30 | 55.97570 | 12.37596 | 17201 ft | 319 kts | 314° |
| 2026-04-26 18:30 | 55.99107 | 12.34718 | 17887 ft | 322 kts | 313° |
| 2026-04-26 18:31 | 56.00651 | 12.31820 | 18552 ft | 325 kts | 313° |
| 2026-04-26 18:31 | 56.02215 | 12.28879 | 19054 ft | 327 kts | 313° |
| 2026-04-26 18:31 | 56.03642 | 12.26190 | 19269 ft | 328 kts | 313° |
| 2026-04-26 18:31 | 56.05213 | 12.23225 | 19312 ft | 326 kts | 313° |
| 2026-04-26 18:32 | 56.06771 | 12.20280 | 19324 ft | 325 kts | 313° |
| 2026-04-26 18:32 | 56.08319 | 12.17352 | 19339 ft | 323 kts | 313° |
| 2026-04-26 18:32 | 56.09846 | 12.14457 | 19350 ft | 322 kts | 313° |
| 2026-04-26 18:32 | 56.11378 | 12.11549 | 19299 ft | 322 kts | 313° |
| 2026-04-26 18:33 | 56.12906 | 12.08645 | 19273 ft | 321 kts | 313° |
| 2026-04-26 18:33 | 56.14439 | 12.05727 | 19306 ft | 325 kts | 313° |
| 2026-04-26 18:33 | 56.15855 | 12.03029 | 19682 ft | 330 kts | 313° |
| 2026-04-26 18:33 | 56.17415 | 12.00056 | 20319 ft | 329 kts | 313° |
| 2026-04-26 18:34 | 56.18928 | 11.97167 | 20932 ft | 332 kts | 312° |
| 2026-04-26 18:34 | 56.20509 | 11.94145 | 21496 ft | 335 kts | 312° |
| 2026-04-26 18:34 | 56.22105 | 11.91092 | 22047 ft | 338 kts | 312° |
| 2026-04-26 18:34 | 56.23705 | 11.88025 | 22572 ft | 341 kts | 312° |
| 2026-04-26 18:35 | 56.25328 | 11.84910 | 23080 ft | 345 kts | 312° |
| 2026-04-26 18:35 | 56.26975 | 11.81744 | 23575 ft | 347 kts | 312° |
| 2026-04-26 18:35 | 56.28618 | 11.78582 | 24044 ft | 351 kts | 312° |
| 2026-04-26 18:35 | 56.30286 | 11.75369 | 24538 ft | 354 kts | 312° |
| 2026-04-26 18:36 | 56.31962 | 11.72133 | 25043 ft | 356 kts | 312° |
| 2026-04-26 18:36 | 56.33604 | 11.68969 | 25377 ft | 348 kts | 311° |
| 2026-04-26 18:36 | 56.35247 | 11.65678 | 25558 ft | 356 kts | 310° |
| 2026-04-26 18:36 | 56.36895 | 11.62298 | 25905 ft | 362 kts | 310° |
| 2026-04-26 18:37 | 56.38539 | 11.58915 | 26290 ft | 366 kts | 310° |
| 2026-04-26 18:37 | 56.40237 | 11.55425 | 26699 ft | 370 kts | 311° |
| 2026-04-26 18:37 | 56.41920 | 11.51971 | 27121 ft | 372 kts | 311° |
| 2026-04-26 18:37 | 56.43639 | 11.48443 | 27550 ft | 375 kts | 311° |
| 2026-04-26 18:38 | 56.45350 | 11.44934 | 27961 ft | 377 kts | 311° |
| 2026-04-26 18:38 | 56.47087 | 11.41365 | 28366 ft | 380 kts | 311° |
| 2026-04-26 18:38 | 56.48834 | 11.37773 | 28763 ft | 382 kts | 311° |
| 2026-04-26 18:38 | 56.50587 | 11.34164 | 29159 ft | 385 kts | 310° |
| 2026-04-26 18:39 | 56.52367 | 11.30493 | 29555 ft | 387 kts | 310° |
| 2026-04-26 18:39 | 56.54151 | 11.26810 | 29964 ft | 389 kts | 311° |
| 2026-04-26 18:39 | 56.55910 | 11.23175 | 30429 ft | 390 kts | 311° |
| 2026-04-26 18:39 | 56.57690 | 11.19491 | 30956 ft | 388 kts | 311° |
| 2026-04-26 18:40 | 56.59452 | 11.15838 | 31475 ft | 386 kts | 311° |
| 2026-04-26 18:40 | 56.61207 | 11.12194 | 31964 ft | 385 kts | 311° |
| 2026-04-26 18:40 | 56.62956 | 11.08558 | 32435 ft | 384 kts | 311° |
| 2026-04-26 18:40 | 56.64713 | 11.04899 | 32889 ft | 383 kts | 311° |
| 2026-04-26 18:41 | 56.66439 | 11.01302 | 33325 ft | 381 kts | 311° |
| 2026-04-26 18:41 | 56.68175 | 10.97679 | 33752 ft | 380 kts | 311° |
| 2026-04-26 18:41 | 56.69918 | 10.94036 | 34169 ft | 379 kts | 311° |
| 2026-04-26 18:41 | 56.71627 | 10.90457 | 34546 ft | 378 kts | 311° |
| 2026-04-26 18:42 | 56.73343 | 10.86858 | 34914 ft | 377 kts | 310° |
| 2026-04-26 18:42 | 56.75048 | 10.83276 | 35273 ft | 376 kts | 310° |
| 2026-04-26 18:42 | 56.76774 | 10.79644 | 35625 ft | 376 kts | 310° |
| 2026-04-26 18:42 | 56.78478 | 10.76050 | 35916 ft | 375 kts | 311° |
| 2026-04-26 18:43 | 56.80165 | 10.72487 | 36179 ft | 374 kts | 311° |
| 2026-04-26 18:43 | 56.81853 | 10.68921 | 36429 ft | 374 kts | 311° |
| 2026-04-26 18:43 | 56.83563 | 10.65300 | 36648 ft | 375 kts | 311° |
| 2026-04-26 18:43 | 56.85251 | 10.61720 | 36813 ft | 376 kts | 311° |
| 2026-04-26 18:44 | 56.86943 | 10.58127 | 36973 ft | 377 kts | 311° |
| 2026-04-26 18:44 | 56.88640 | 10.54516 | 37133 ft | 378 kts | 311° |
| 2026-04-26 18:44 | 56.90359 | 10.50851 | 37285 ft | 379 kts | 311° |
| 2026-04-26 18:44 | 56.92054 | 10.47231 | 37421 ft | 380 kts | 311° |
| 2026-04-26 18:45 | 56.93773 | 10.43556 | 37552 ft | 381 kts | 311° |
| 2026-04-26 18:45 | 56.95492 | 10.39875 | 37681 ft | 382 kts | 311° |
| 2026-04-26 18:45 | 56.97229 | 10.36150 | 37808 ft | 383 kts | 311° |
| 2026-04-26 18:45 | 56.98940 | 10.32473 | 37928 ft | 384 kts | 310° |
| 2026-04-26 18:46 | 57.00687 | 10.28713 | 38053 ft | 385 kts | 310° |
| 2026-04-26 18:46 | 57.02405 | 10.25011 | 38174 ft | 386 kts | 310° |
| 2026-04-26 18:46 | 57.05895 | 10.17473 | 38258 ft | 388 kts | 310° |
| 2026-04-26 18:47 | 57.09382 | 10.09918 | 38267 ft | 388 kts | 310° |
| 2026-04-26 18:47 | 57.12791 | 10.02508 | 38260 ft | 389 kts | 310° |
| 2026-04-26 18:48 | 57.16270 | 9.94922 | 38251 ft | 389 kts | 310° |
| 2026-04-26 18:48 | 57.19749 | 9.87316 | 38250 ft | 388 kts | 310° |
| 2026-04-26 18:49 | 57.23226 | 9.79686 | 38250 ft | 389 kts | 310° |
| 2026-04-26 18:49 | 57.26682 | 9.72077 | 38250 ft | 390 kts | 310° |
| 2026-04-26 18:50 | 57.30152 | 9.64411 | 38249 ft | 390 kts | 310° |
| 2026-04-26 18:50 | 57.33617 | 9.56731 | 38249 ft | 390 kts | 310° |
| 2026-04-26 18:51 | 57.37073 | 9.49046 | 38249 ft | 390 kts | 310° |
| 2026-04-26 18:51 | 57.40530 | 9.41332 | 38248 ft | 390 kts | 310° |
| 2026-04-26 18:52 | 57.43970 | 9.33633 | 38248 ft | 390 kts | 309° |
| 2026-04-26 18:52 | 57.47421 | 9.25886 | 38246 ft | 390 kts | 309° |
| 2026-04-26 18:53 | 57.50880 | 9.18095 | 38245 ft | 390 kts | 309° |
| 2026-04-26 18:53 | 57.54296 | 9.10376 | 38243 ft | 390 kts | 309° |
| 2026-04-26 18:54 | 57.57737 | 9.02576 | 38241 ft | 391 kts | 309° |
| 2026-04-26 18:54 | 57.61167 | 8.94772 | 38238 ft | 392 kts | 309° |
| 2026-04-26 18:55 | 57.64609 | 8.86909 | 38234 ft | 391 kts | 309° |
| 2026-04-26 18:55 | 57.68025 | 8.79100 | 38230 ft | 392 kts | 310° |
| 2026-04-26 18:56 | 57.71538 | 8.71317 | 38226 ft | 392 kts | 310° |
| 2026-04-26 18:56 | 57.75038 | 8.63570 | 38222 ft | 392 kts | 310° |
| 2026-04-26 18:57 | 57.77371 | 8.58383 | 38219 ft | 392 kts | 310° |
| 2026-04-26 18:57 | 57.82040 | 8.47962 | 38215 ft | 393 kts | 310° |
| 2026-04-26 18:58 | 57.85516 | 8.40168 | 38211 ft | 393 kts | 310° |
| 2026-04-26 18:58 | 57.89031 | 8.32264 | 38209 ft | 393 kts | 309° |
| 2026-04-26 18:59 | 57.92520 | 8.24390 | 38206 ft | 393 kts | 309° |
| 2026-04-26 18:59 | 57.95988 | 8.16537 | 38204 ft | 394 kts | 309° |
| 2026-04-26 19:00 | 57.99483 | 8.08595 | 38202 ft | 394 kts | 309° |
| 2026-04-26 19:00 | 58.02971 | 8.00641 | 38200 ft | 394 kts | 309° |
| 2026-04-26 19:01 | 58.06427 | 7.92733 | 38199 ft | 394 kts | 309° |
| 2026-04-26 19:01 | 58.09923 | 7.84707 | 38196 ft | 394 kts | 309° |
| 2026-04-26 19:02 | 58.13250 | 7.77045 | 38193 ft | 394 kts | 309° |
| 2026-04-26 19:02 | 58.16027 | 7.70628 | 38191 ft | 394 kts | 309° |
| 2026-04-26 19:03 | 58.19916 | 7.61614 | 38190 ft | 394 kts | 309° |
| 2026-04-26 19:03 | 58.23390 | 7.53532 | 38189 ft | 394 kts | 309° |
| 2026-04-26 19:04 | 58.26828 | 7.45506 | 38189 ft | 394 kts | 309° |
| 2026-04-26 19:04 | 58.30286 | 7.37412 | 38181 ft | 395 kts | 309° |
| 2026-04-26 19:05 | 58.35433 | 7.25306 | 38169 ft | 395 kts | 308° |
| 2026-04-26 19:06 | 58.38399 | 7.18301 | 38165 ft | 395 kts | 308° |
| 2026-04-26 19:06 | 58.41820 | 7.10196 | 38163 ft | 394 kts | 308° |
| 2026-04-26 19:07 | 58.45244 | 7.02055 | 38165 ft | 394 kts | 308° |
| 2026-04-26 19:07 | 58.48651 | 6.93926 | 38167 ft | 394 kts | 308° |
| 2026-04-26 19:08 | 58.52065 | 6.85754 | 38175 ft | 394 kts | 308° |
| 2026-04-26 19:08 | 58.55461 | 6.77594 | 38189 ft | 394 kts | 308° |
| 2026-04-26 19:09 | 58.58850 | 6.69423 | 38204 ft | 393 kts | 308° |
| 2026-04-26 19:09 | 58.62232 | 6.61238 | 38212 ft | 393 kts | 308° |
| 2026-04-26 19:10 | 58.65606 | 6.53044 | 38212 ft | 393 kts | 308° |
| 2026-04-26 19:10 | 58.69000 | 6.44777 | 38144 ft | 393 kts | 308° |
| 2026-04-26 19:11 | 58.72364 | 6.36551 | 38079 ft | 393 kts | 308° |
| 2026-04-26 19:11 | 58.75644 | 6.28504 | 38063 ft | 393 kts | 307° |
| 2026-04-26 19:12 | 58.79013 | 6.20214 | 38138 ft | 393 kts | 307° |
| 2026-04-26 19:12 | 58.82365 | 6.11933 | 38184 ft | 393 kts | 307° |
| 2026-04-26 19:13 | 58.85725 | 6.03603 | 38217 ft | 393 kts | 307° |
| 2026-04-26 19:13 | 58.89057 | 5.95313 | 38240 ft | 393 kts | 307° |
| 2026-04-26 19:14 | 58.92401 | 5.86965 | 38244 ft | 393 kts | 307° |
| 2026-04-26 19:14 | 58.95737 | 5.78612 | 38250 ft | 394 kts | 307° |
| 2026-04-26 19:15 | 58.99078 | 5.70212 | 38266 ft | 394 kts | 307° |
| 2026-04-26 19:15 | 59.02408 | 5.61807 | 38273 ft | 394 kts | 307° |
| 2026-04-26 19:16 | 59.05167 | 5.54822 | 38275 ft | 394 kts | 307° |
| 2026-04-26 19:16 | 59.09048 | 5.44959 | 38276 ft | 395 kts | 307° |
| 2026-04-26 19:17 | 59.12369 | 5.36489 | 38275 ft | 395 kts | 307° |
| 2026-04-26 19:17 | 59.15662 | 5.28059 | 38274 ft | 395 kts | 306° |
| 2026-04-26 19:18 | 59.18454 | 5.20889 | 38272 ft | 395 kts | 306° |
| 2026-04-26 19:18 | 59.21532 | 5.12961 | 38273 ft | 395 kts | 306° |
| 2026-04-26 19:19 | 59.24726 | 5.04704 | 38275 ft | 395 kts | 306° |
| 2026-04-26 19:20 | 59.30344 | 4.90111 | 38277 ft | 396 kts | 306° |
| 2026-04-26 19:20 | 59.33398 | 4.82134 | 38279 ft | 396 kts | 306° |
| 2026-04-26 19:21 | 59.36668 | 4.73567 | 38279 ft | 396 kts | 306° |
| 2026-04-26 19:21 | 59.39954 | 4.64928 | 38279 ft | 396 kts | 306° |
| 2026-04-26 19:22 | 59.43229 | 4.56287 | 38279 ft | 396 kts | 306° |
| 2026-04-26 19:22 | 59.46511 | 4.47596 | 38280 ft | 397 kts | 306° |
| 2026-04-26 19:23 | 59.49772 | 4.38925 | 38281 ft | 398 kts | 306° |
| 2026-04-26 19:23 | 59.52961 | 4.30416 | 38282 ft | 398 kts | 305° |
| 2026-04-26 19:24 | 59.56229 | 4.21662 | 38282 ft | 398 kts | 305° |
| 2026-04-26 19:24 | 59.61123 | 4.08495 | 38283 ft | 399 kts | 305° |
| 2026-04-26 19:25 | 59.63836 | 4.01164 | 38284 ft | 399 kts | 305° |
| 2026-04-26 19:25 | 59.67642 | 3.90840 | 38289 ft | 399 kts | 305° |
| 2026-04-26 19:26 | 59.70895 | 3.81981 | 38294 ft | 400 kts | 304° |
| 2026-04-26 19:26 | 59.74147 | 3.73088 | 38296 ft | 400 kts | 304° |
| 2026-04-26 19:27 | 59.77378 | 3.64221 | 38297 ft | 400 kts | 304° |
| 2026-04-26 19:27 | 59.80636 | 3.55247 | 38301 ft | 401 kts | 304° |
| 2026-04-26 19:28 | 59.83862 | 3.46324 | 38305 ft | 401 kts | 304° |
| 2026-04-26 19:28 | 59.87095 | 3.37351 | 38306 ft | 400 kts | 304° |
| 2026-04-26 19:29 | 59.90334 | 3.28323 | 38307 ft | 400 kts | 304° |
| 2026-04-26 19:29 | 59.93535 | 3.19370 | 38306 ft | 400 kts | 304° |
| 2026-04-26 19:30 | 59.96744 | 3.10357 | 38305 ft | 400 kts | 303° |
| 2026-04-26 19:30 | 59.99422 | 3.02812 | 38305 ft | 400 kts | 303° |
| 2026-04-26 19:31 | 60.03162 | 2.92223 | 38307 ft | 401 kts | 303° |
| 2026-04-26 19:31 | 60.06359 | 2.83134 | 38308 ft | 402 kts | 304° |
| 2026-04-26 19:32 | 60.09548 | 2.74045 | 38306 ft | 403 kts | 303° |
| 2026-04-26 19:32 | 60.12767 | 2.64824 | 38304 ft | 403 kts | 303° |
| 2026-04-26 19:33 | 60.15960 | 2.55637 | 38303 ft | 404 kts | 303° |
| 2026-04-26 19:33 | 60.19145 | 2.46443 | 38303 ft | 404 kts | 303° |
| 2026-04-26 19:34 | 60.22326 | 2.37224 | 38303 ft | 404 kts | 303° |
| 2026-04-26 19:34 | 60.25509 | 2.27963 | 38303 ft | 404 kts | 302° |
| 2026-04-26 19:35 | 60.28697 | 2.18655 | 38303 ft | 404 kts | 302° |
| 2026-04-26 19:35 | 60.31865 | 2.09367 | 38303 ft | 403 kts | 302° |
| 2026-04-26 19:36 | 60.34493 | 2.01635 | 38303 ft | 403 kts | 302° |
| 2026-04-26 19:36 | 60.38156 | 1.90810 | 38303 ft | 403 kts | 302° |
| 2026-04-26 19:37 | 60.41309 | 1.81454 | 38301 ft | 403 kts | 302° |
| 2026-04-26 19:37 | 60.44441 | 1.72124 | 38299 ft | 403 kts | 302° |
| 2026-04-26 19:38 | 60.47566 | 1.62776 | 38298 ft | 403 kts | 302° |
| 2026-04-26 19:38 | 60.50689 | 1.53394 | 38296 ft | 404 kts | 302° |
| 2026-04-26 19:39 | 60.53825 | 1.43940 | 38294 ft | 404 kts | 302° |
| 2026-04-26 19:39 | 60.56940 | 1.34506 | 38295 ft | 405 kts | 302° |
| 2026-04-26 19:40 | 60.60063 | 1.25009 | 38297 ft | 405 kts | 302° |
| 2026-04-26 19:40 | 60.63171 | 1.15521 | 38300 ft | 406 kts | 302° |
| 2026-04-26 19:41 | 60.66277 | 1.06004 | 38304 ft | 406 kts | 302° |
| 2026-04-26 19:41 | 60.68885 | 0.97980 | 38305 ft | 407 kts | 302° |
| 2026-04-26 19:42 | 60.72501 | 0.86809 | 38306 ft | 407 kts | 302° |
| 2026-04-26 19:42 | 60.75608 | 0.77167 | 38306 ft | 407 kts | 302° |
| 2026-04-26 19:43 | 60.78558 | 0.67348 | 38303 ft | 406 kts | 293° |
| 2026-04-26 19:43 | 60.80600 | 0.56639 | 38305 ft | 406 kts | 289° |
| 2026-04-26 19:44 | 60.82542 | 0.45844 | 38304 ft | 406 kts | 289° |
| 2026-04-26 19:44 | 60.84485 | 0.35076 | 38303 ft | 406 kts | 289° |
| 2026-04-26 19:45 | 60.86449 | 0.24185 | 38304 ft | 407 kts | 289° |
| 2026-04-26 19:45 | 60.88385 | 0.13421 | 38307 ft | 407 kts | 289° |
| 2026-04-26 19:46 | 60.90335 | 0.02521 | 38310 ft | 407 kts | 289° |
| 2026-04-26 19:46 | 60.92266 | -0.08331 | 38310 ft | 407 kts | 289° |
| 2026-04-26 19:47 | 60.93869 | -0.17383 | 38294 ft | 407 kts | 289° |
| 2026-04-26 19:47 | 60.96110 | -0.30099 | 38277 ft | 410 kts | 288° |
| 2026-04-26 19:48 | 60.98043 | -0.41150 | 38290 ft | 412 kts | 288° |
| 2026-04-26 19:48 | 60.99970 | -0.52241 | 38298 ft | 412 kts | 288° |
| 2026-04-26 19:49 | 61.01877 | -0.63279 | 38299 ft | 412 kts | 288° |
| 2026-04-26 19:49 | 61.03785 | -0.74387 | 38299 ft | 412 kts | 287° |
| 2026-04-26 19:50 | 61.05681 | -0.85488 | 38298 ft | 412 kts | 287° |
| 2026-04-26 19:50 | 61.07561 | -0.96561 | 38297 ft | 412 kts | 287° |
| 2026-04-26 19:51 | 61.09446 | -1.07726 | 38296 ft | 412 kts | 287° |
| 2026-04-26 19:51 | 61.11321 | -1.18906 | 38296 ft | 412 kts | 287° |
| 2026-04-26 19:52 | 61.13177 | -1.30028 | 38297 ft | 412 kts | 287° |
| 2026-04-26 19:52 | 61.15029 | -1.41198 | 38296 ft | 412 kts | 287° |
| 2026-04-26 19:53 | 61.16867 | -1.52363 | 38294 ft | 412 kts | 287° |
| 2026-04-26 19:53 | 61.18703 | -1.63579 | 38286 ft | 413 kts | 287° |
| 2026-04-26 19:54 | 61.20539 | -1.74870 | 38278 ft | 413 kts | 287° |
| 2026-04-26 19:54 | 61.22356 | -1.86111 | 38267 ft | 413 kts | 287° |
| 2026-04-26 19:55 | 61.24159 | -1.97337 | 38036 ft | 413 kts | 287° |
| 2026-04-26 19:55 | 61.25057 | -2.02957 | 37840 ft | 410 kts | 287° |
| 2026-04-26 19:55 | 61.25950 | -2.08553 | 37644 ft | 408 kts | 287° |
| 2026-04-26 19:56 | 61.26831 | -2.14104 | 37447 ft | 405 kts | 287° |
| 2026-04-26 19:56 | 61.27706 | -2.19625 | 37249 ft | 403 kts | 287° |
| 2026-04-26 19:56 | 61.28566 | -2.25071 | 37052 ft | 401 kts | 287° |
| 2026-04-26 19:56 | 61.29429 | -2.30554 | 36853 ft | 401 kts | 287° |
| 2026-04-26 19:57 | 61.30296 | -2.36080 | 36654 ft | 401 kts | 286° |
| 2026-04-26 19:57 | 61.31155 | -2.41573 | 36460 ft | 402 kts | 286° |
| 2026-04-26 19:57 | 61.32025 | -2.47155 | 36263 ft | 402 kts | 286° |
| 2026-04-26 19:57 | 61.32877 | -2.52642 | 36069 ft | 402 kts | 286° |
| 2026-04-26 19:58 | 61.33725 | -2.58117 | 35874 ft | 403 kts | 286° |
| 2026-04-26 19:58 | 61.34585 | -2.63687 | 35674 ft | 403 kts | 286° |
| 2026-04-26 19:58 | 61.35439 | -2.69236 | 35475 ft | 404 kts | 285° |
| 2026-04-26 19:58 | 61.36292 | -2.74790 | 35275 ft | 404 kts | 285° |
| 2026-04-26 19:59 | 61.37133 | -2.80295 | 35074 ft | 404 kts | 285° |
| 2026-04-26 19:59 | 61.37986 | -2.85886 | 34866 ft | 405 kts | 285° |
| 2026-04-26 19:59 | 61.38834 | -2.91471 | 34657 ft | 406 kts | 285° |
| 2026-04-26 19:59 | 61.39674 | -2.97014 | 34450 ft | 406 kts | 285° |
| 2026-04-26 20:00 | 61.40521 | -3.02628 | 34219 ft | 407 kts | 285° |
| 2026-04-26 20:00 | 61.41374 | -3.08294 | 33944 ft | 408 kts | 285° |
| 2026-04-26 20:00 | 61.42213 | -3.13894 | 33674 ft | 409 kts | 285° |
| 2026-04-26 20:00 | 61.43061 | -3.19568 | 33400 ft | 409 kts | 285° |
| 2026-04-26 20:01 | 61.43898 | -3.25184 | 33131 ft | 410 kts | 285° |
| 2026-04-26 20:01 | 61.44737 | -3.30833 | 32862 ft | 411 kts | 285° |
| 2026-04-26 20:01 | 61.45587 | -3.36581 | 32590 ft | 412 kts | 285° |
| 2026-04-26 20:01 | 61.46419 | -3.42223 | 32324 ft | 413 kts | 285° |
| 2026-04-26 20:02 | 61.47263 | -3.47966 | 32054 ft | 414 kts | 285° |
| 2026-04-26 20:02 | 61.48108 | -3.53733 | 31783 ft | 415 kts | 285° |
| 2026-04-26 20:02 | 61.48947 | -3.59484 | 31515 ft | 416 kts | 285° |
| 2026-04-26 20:02 | 61.49509 | -3.63340 | 31336 ft | 417 kts | 285° |
| 2026-04-26 20:03 | 61.50625 | -3.71040 | 30979 ft | 418 kts | 284° |
| 2026-04-26 20:03 | 61.51467 | -3.76867 | 30707 ft | 419 kts | 284° |
| 2026-04-26 20:03 | 61.52307 | -3.82699 | 30452 ft | 420 kts | 284° |
| 2026-04-26 20:03 | 61.53142 | -3.88517 | 30203 ft | 421 kts | 284° |
| 2026-04-26 20:04 | 61.53982 | -3.94394 | 29944 ft | 422 kts | 284° |
| 2026-04-26 20:04 | 61.54818 | -4.00263 | 29669 ft | 422 kts | 284° |
| 2026-04-26 20:04 | 61.55651 | -4.06128 | 29395 ft | 421 kts | 284° |
| 2026-04-26 20:04 | 61.56483 | -4.12006 | 29119 ft | 419 kts | 284° |
| 2026-04-26 20:05 | 61.57309 | -4.17865 | 28844 ft | 418 kts | 284° |
| 2026-04-26 20:05 | 61.58123 | -4.23654 | 28573 ft | 416 kts | 284° |
| 2026-04-26 20:05 | 61.58926 | -4.29390 | 28303 ft | 415 kts | 284° |
| 2026-04-26 20:05 | 61.59734 | -4.35179 | 28030 ft | 413 kts | 284° |
| 2026-04-26 20:06 | 61.60534 | -4.40933 | 27759 ft | 412 kts | 284° |
| 2026-04-26 20:06 | 61.61336 | -4.46724 | 27486 ft | 410 kts | 284° |
| 2026-04-26 20:06 | 61.62119 | -4.52399 | 27217 ft | 409 kts | 284° |
| 2026-04-26 20:06 | 61.62909 | -4.58141 | 26945 ft | 407 kts | 284° |
| 2026-04-26 20:07 | 61.63683 | -4.63789 | 26678 ft | 406 kts | 284° |
| 2026-04-26 20:07 | 61.64464 | -4.69507 | 26409 ft | 404 kts | 283° |
| 2026-04-26 20:07 | 61.65226 | -4.75101 | 26144 ft | 402 kts | 283° |
| 2026-04-26 20:07 | 61.65989 | -4.80730 | 25878 ft | 401 kts | 283° |
| 2026-04-26 20:08 | 61.66748 | -4.86349 | 25611 ft | 399 kts | 283° |
| 2026-04-26 20:08 | 61.67497 | -4.91910 | 25338 ft | 398 kts | 283° |
| 2026-04-26 20:08 | 61.68241 | -4.97462 | 25056 ft | 396 kts | 283° |
| 2026-04-26 20:08 | 61.68985 | -5.03025 | 24707 ft | 394 kts | 283° |
| 2026-04-26 20:09 | 61.69722 | -5.08552 | 24282 ft | 391 kts | 283° |
| 2026-04-26 20:09 | 61.70445 | -5.13998 | 23822 ft | 389 kts | 283° |
| 2026-04-26 20:09 | 61.71175 | -5.19510 | 23341 ft | 387 kts | 283° |
| 2026-04-26 20:09 | 61.71889 | -5.24923 | 22860 ft | 385 kts | 283° |
| 2026-04-26 20:10 | 61.72598 | -5.30320 | 22368 ft | 383 kts | 283° |
| 2026-04-26 20:10 | 61.73297 | -5.35662 | 21876 ft | 381 kts | 283° |
| 2026-04-26 20:10 | 61.73999 | -5.41044 | 21388 ft | 378 kts | 283° |
| 2026-04-26 20:10 | 61.74686 | -5.46334 | 20911 ft | 376 kts | 283° |
| 2026-04-26 20:11 | 61.75365 | -5.51574 | 20440 ft | 373 kts | 283° |
| 2026-04-26 20:11 | 61.76042 | -5.56814 | 19967 ft | 370 kts | 283° |
| 2026-04-26 20:11 | 61.76715 | -5.62038 | 19495 ft | 367 kts | 283° |
| 2026-04-26 20:12 | 61.78034 | -5.72334 | 18557 ft | 362 kts | 282° |
| 2026-04-26 20:12 | 61.78679 | -5.77397 | 18096 ft | 359 kts | 282° |
| 2026-04-26 20:12 | 61.79317 | -5.82421 | 17640 ft | 356 kts | 282° |
| 2026-04-26 20:12 | 61.79956 | -5.87472 | 17181 ft | 354 kts | 282° |
| 2026-04-26 20:13 | 61.80585 | -5.92452 | 16728 ft | 351 kts | 283° |
| 2026-04-26 20:13 | 61.81206 | -5.97390 | 16277 ft | 348 kts | 283° |
| 2026-04-26 20:13 | 61.81820 | -6.02288 | 15830 ft | 345 kts | 283° |
| 2026-04-26 20:13 | 61.82433 | -6.07185 | 15382 ft | 343 kts | 283° |
| 2026-04-26 20:14 | 61.83032 | -6.11993 | 14943 ft | 340 kts | 283° |
| 2026-04-26 20:14 | 61.83626 | -6.16778 | 14507 ft | 338 kts | 283° |
| 2026-04-26 20:14 | 61.84223 | -6.21598 | 14067 ft | 335 kts | 283° |
| 2026-04-26 20:14 | 61.84803 | -6.26291 | 13639 ft | 333 kts | 283° |
| 2026-04-26 20:15 | 61.85382 | -6.30999 | 13207 ft | 329 kts | 283° |
| 2026-04-26 20:15 | 61.85953 | -6.35639 | 12781 ft | 327 kts | 283° |
| 2026-04-26 20:15 | 61.86521 | -6.40275 | 12354 ft | 325 kts | 283° |
| 2026-04-26 20:15 | 61.87080 | -6.44861 | 11932 ft | 322 kts | 283° |
| 2026-04-26 20:16 | 61.87637 | -6.49448 | 11530 ft | 320 kts | 283° |
| 2026-04-26 20:16 | 61.88183 | -6.53956 | 11122 ft | 317 kts | 283° |
| 2026-04-26 20:16 | 61.88758 | -6.58427 | 10708 ft | 315 kts | 286° |
| 2026-04-26 20:16 | 61.89425 | -6.62831 | 10430 ft | 306 kts | 287° |
| 2026-04-26 20:17 | 61.90071 | -6.66986 | 10306 ft | 292 kts | 286° |
| 2026-04-26 20:17 | 61.90686 | -6.70932 | 10186 ft | 279 kts | 286° |
| 2026-04-26 20:17 | 61.91278 | -6.74759 | 9995 ft | 271 kts | 285° |
| 2026-04-26 20:17 | 61.91859 | -6.78547 | 9645 ft | 270 kts | 285° |
| 2026-04-26 20:18 | 61.92435 | -6.82313 | 9312 ft | 268 kts | 285° |
| 2026-04-26 20:18 | 61.93008 | -6.86066 | 8987 ft | 267 kts | 285° |
| 2026-04-26 20:18 | 61.93577 | -6.89785 | 8666 ft | 264 kts | 285° |
| 2026-04-26 20:18 | 61.94136 | -6.93458 | 8348 ft | 262 kts | 285° |
| 2026-04-26 20:19 | 61.94693 | -6.97139 | 8030 ft | 260 kts | 285° |
| 2026-04-26 20:19 | 61.95238 | -7.00741 | 7740 ft | 257 kts | 285° |
| 2026-04-26 20:19 | 61.95779 | -7.04325 | 7436 ft | 255 kts | 285° |
| 2026-04-26 20:19 | 61.96321 | -7.07900 | 7122 ft | 252 kts | 285° |
| 2026-04-26 20:20 | 61.96858 | -7.11446 | 6808 ft | 251 kts | 285° |
| 2026-04-26 20:20 | 61.97387 | -7.14963 | 6492 ft | 249 kts | 284° |
| 2026-04-26 20:20 | 61.97908 | -7.18436 | 6183 ft | 247 kts | 284° |
| 2026-04-26 20:20 | 61.98425 | -7.21897 | 5878 ft | 246 kts | 284° |
| 2026-04-26 20:21 | 61.98936 | -7.25335 | 5575 ft | 244 kts | 284° |
| 2026-04-26 20:21 | 61.99445 | -7.28750 | 5255 ft | 242 kts | 284° |
| 2026-04-26 20:21 | 61.99954 | -7.32156 | 4935 ft | 241 kts | 284° |
| 2026-04-26 20:21 | 62.00454 | -7.35519 | 4623 ft | 241 kts | 284° |
| 2026-04-26 20:22 | 62.00959 | -7.38927 | 4330 ft | 239 kts | 285° |
| 2026-04-26 20:22 | 62.01444 | -7.42185 | 4293 ft | 223 kts | 285° |
| 2026-04-26 20:22 | 62.01899 | -7.45234 | 4271 ft | 216 kts | 285° |
| 2026-04-26 20:22 | 62.02405 | -7.48287 | 4238 ft | 220 kts | 293° |
| 2026-04-26 20:23 | 62.03206 | -7.51081 | 4198 ft | 224 kts | 307° |
| 2026-04-26 20:23 | 62.04271 | -7.53397 | 4114 ft | 217 kts | 320° |
| 2026-04-26 20:23 | 62.05502 | -7.55105 | 4000 ft | 208 kts | 334° |
| 2026-04-26 20:23 | 62.06836 | -7.56083 | 4033 ft | 200 kts | 351° |
| 2026-04-26 20:24 | 62.08181 | -7.55904 | 3711 ft | 196 kts | 18° |
| 2026-04-26 20:24 | 62.09368 | -7.54568 | 3283 ft | 192 kts | 43° |
| 2026-04-26 20:24 | 62.10163 | -7.52460 | 2932 ft | 175 kts | 67° |
| 2026-04-26 20:24 | 62.10516 | -7.50125 | 2651 ft | 157 kts | 88° |
| 2026-04-26 20:25 | 62.10486 | -7.47951 | 2653 ft | 144 kts | 105° |
| 2026-04-26 20:25 | 62.10290 | -7.46594 | 2605 ft | 141 kts | 115° |
| 2026-04-26 20:25 | 62.09777 | -7.44142 | 2219 ft | 137 kts | 114° |
| 2026-04-26 20:25 | 62.09407 | -7.42277 | 1880 ft | 136 kts | 114° |
| 2026-04-26 20:26 | 62.09046 | -7.40436 | 1637 ft | 133 kts | 116° |
| 2026-04-26 20:26 | 62.08705 | -7.38691 | 1389 ft | 123 kts | 116° |
| 2026-04-26 20:26 | 62.08369 | -7.37042 | 1195 ft | 121 kts | 116° |
| 2026-04-26 20:26 | 62.08041 | -7.35412 | 1019 ft | 120 kts | 116° |
| 2026-04-26 20:27 | 62.07708 | -7.33767 | 830 ft | 120 kts | 115° |
| 2026-04-26 20:27 | 62.07412 | -7.32121 | 656 ft | 120 kts | 112° |
| 2026-04-26 20:27 | 62.07055 | -7.30533 | 461 ft | 119 kts | 119° |
| 2026-04-26 20:27 | 62.06664 | -7.28957 | 288 ft | 118 kts | 118° |
| 2026-04-26 20:28 | 62.06379 | -7.27803 | 297 ft | 46 kts | 118° |
| 2026-04-26 20:28 | 62.06274 | -7.27374 | 290 ft | 29 kts | 118° |
| 2026-04-26 20:28 | 62.06176 | -7.26981 | 278 ft | 31 kts | 118° |
| 2026-04-26 20:28 | 62.06072 | -7.26561 | 264 ft | 32 kts | 117° |
| 2026-04-26 20:29 | 62.05993 | -7.26242 | 253 ft | 22 kts | 118° |
| 2026-04-26 20:29 | 62.05953 | -7.26034 | 250 ft | 11 kts | 94° |
| 2026-04-26 20:29 | 62.05935 | -7.26009 | 250 ft | 7 kts | 284° |
| 2026-04-26 20:29 | 62.05967 | -7.26129 | 251 ft | 10 kts | 297° |
| 2026-04-26 20:30 | 62.06000 | -7.26269 | 254 ft | 10 kts | 297° |
| 2026-04-26 20:30 | 62.06028 | -7.26384 | 258 ft | 7 kts | 297° |
| 2026-04-26 20:30 | 62.06052 | -7.26480 | 261 ft | 9 kts | 298° |
| 2026-04-26 20:30 | 62.06097 | -7.26659 | 267 ft | 17 kts | 298° |
| 2026-04-26 20:31 | 62.06163 | -7.26926 | 275 ft | 23 kts | 297° |
| 2026-04-26 20:31 | 62.06246 | -7.27262 | 285 ft | 28 kts | 298° |
| 2026-04-26 20:31 | 62.06346 | -7.27665 | 295 ft | 33 kts | 298° |
| 2026-04-26 20:31 | 62.06448 | -7.28076 | 294 ft | 17 kts | 298° |
| 2026-04-26 20:32 | 62.06514 | -7.28132 | 292 ft | 9 kts | 21° |
| 2026-04-26 20:32 | 62.06562 | -7.28094 | 291 ft | 8 kts | 12° |
| 2026-04-26 20:32 | 62.06594 | -7.28088 | 291 ft | 5 kts | 1° |
| 2026-04-26 20:32 | 62.06629 | -7.28089 | 291 ft | 2 kts | 12° |
| 2026-04-26 20:33 | 62.06648 | -7.28052 | 290 ft | 4 kts | 70° |
| 2026-04-26 20:33 | 62.06644 | -7.27976 | 290 ft | 5 kts | 103° |
| 2026-04-26 20:33 | 62.06640 | -7.27951 | 291 ft | 1 kts | 110° |
| 2026-04-26 20:33 | 62.06636 | -7.27924 | 291 ft | 1 kts | 100° |
| 2026-04-26 20:34 | 62.06664 | -7.27875 | 291 ft | 4 kts | 27° |
| 2026-04-26 20:34 | 62.06672 | -7.27867 | 291 ft | 0 kts | 26° |